Time;durP1;ratioP1;P1;durP2;ratioP2;P2;SDS_P1;SDS_P2;PMS_P1;PMS_P2;Temp;Humidity;BMP_temperature;BMP_pressure;BME280_temperature;BME280_humidity;BME280_pressure;Samples;Min_cycle;Max_cycle;Signal;HPM_P1;HPM_P2
2023/08/19 00:00:58;;;;;;;8.48;2.90;;;18.00;99.90;;;;;;4972484;28;20104;-78
2023/08/19 00:03:23;;;;;;;5.45;2.50;;;18.10;99.90;;;;;;4971980;28;20114;-76
2023/08/19 00:05:49;;;;;;;6.72;2.28;;;18.10;99.90;;;;;;4989785;28;20109;-78
2023/08/19 00:08:15;;;;;;;1.85;1.70;;;18.10;99.90;;;;;;4989529;28;20028;-78
2023/08/19 00:10:41;;;;;;;4.55;1.92;;;18.10;99.90;;;;;;4989673;28;20069;-76
2023/08/19 00:13:06;;;;;;;3.28;1.70;;;18.10;99.90;;;;;;4972114;28;20080;-78
2023/08/19 00:15:33;;;;;;;2.75;2.45;;;18.10;99.90;;;;;;4990123;28;20491;-78
2023/08/19 00:18:02;;;;;;;3.97;2.25;;;18.20;99.90;;;;;;4989853;28;20026;-78
2023/08/19 00:20:28;;;;;;;1.95;1.77;;;18.20;99.90;;;;;;4989718;28;20513;-78
2023/08/19 00:22:57;;;;;;;2.25;2.00;;;18.20;99.90;;;;;;4989170;28;20030;-76
2023/08/19 00:25:24;;;;;;;2.10;1.90;;;18.10;99.90;;;;;;4971932;28;20483;-78
2023/08/19 00:27:51;;;;;;;3.22;2.20;;;18.10;99.90;;;;;;4971916;28;20034;-77
2023/08/19 00:30:17;;;;;;;2.78;2.45;;;18.00;99.90;;;;;;4989463;28;20023;-77
2023/08/19 00:32:43;;;;;;;1.83;1.65;;;18.00;99.90;;;;;;4988950;28;20447;-78
2023/08/19 00:35:08;;;;;;;2.22;2.10;;;17.90;99.90;;;;;;4989374;28;20078;-78
2023/08/19 00:37:35;;;;;;;1.90;1.70;;;17.80;99.90;;;;;;4972066;28;20526;-78
2023/08/19 00:40:04;;;;;;;3.85;2.17;;;17.70;99.90;;;;;;4989043;28;20106;-79
2023/08/19 00:42:30;;;;;;;1.75;1.38;;;17.70;99.90;;;;;;4988607;28;20175;-78
2023/08/19 00:44:56;;;;;;;3.67;2.83;;;17.80;99.90;;;;;;4971463;28;20045;-77
2023/08/19 00:47:22;;;;;;;2.22;1.85;;;17.80;99.90;;;;;;4988559;28;20022;-78
2023/08/19 00:49:48;;;;;;;3.50;1.80;;;17.80;99.90;;;;;;4971511;28;20026;-79
2023/08/19 00:52:15;;;;;;;2.20;1.73;;;17.70;99.90;;;;;;4989388;28;20563;-77
2023/08/19 00:54:41;;;;;;;3.30;2.25;;;17.70;99.90;;;;;;4971343;28;20026;-78
2023/08/19 00:57:06;;;;;;;4.88;2.03;;;17.70;99.90;;;;;;4971474;28;20022;-77
2023/08/19 00:59:32;;;;;;;2.67;2.22;;;17.70;99.90;;;;;;4988805;28;20447;-78
2023/08/19 01:01:57;;;;;;;4.88;1.92;;;17.80;99.90;;;;;;4970707;28;20493;-78
2023/08/19 01:04:24;;;;;;;6.53;1.88;;;17.70;99.90;;;;;;4989176;28;20023;-78
2023/08/19 01:07:08;;;;;;;2.53;2.00;;;17.60;99.90;;;;;;4971248;28;20065;-77
2023/08/19 01:09:42;;;;;;;3.13;1.80;;;17.60;99.90;;;;;;4970906;28;20030;-78
2023/08/19 01:12:28;;;;;;;2.67;2.47;;;17.60;99.90;;;;;;4951836;28;20054;-79
2023/08/19 01:14:57;;;;;;;2.50;1.92;;;17.50;99.90;;;;;;4969004;28;20603;-78
2023/08/19 01:17:28;;;;;;;15.85;2.40;;;17.50;99.90;;;;;;4969160;28;20027;-78
2023/08/19 01:19:56;;;;;;;2.13;1.75;;;17.50;99.90;;;;;;4969282;28;20306;-78
2023/08/19 01:22:46;;;;;;;2.55;2.13;;;17.60;99.90;;;;;;4967867;28;20030;-78
2023/08/19 01:25:12;;;;;;;4.82;1.98;;;17.50;99.90;;;;;;4929378;28;20089;-78
2023/08/19 01:27:37;;;;;;;5.97;2.15;;;17.40;99.90;;;;;;4969032;28;20499;-78
2023/08/19 01:30:04;;;;;;;3.13;1.80;;;17.40;99.90;;;;;;4951520;28;20023;-78
2023/08/19 01:32:30;;;;;;;2.15;1.95;;;17.30;99.90;;;;;;4968927;28;20026;-78
2023/08/19 01:34:59;;;;;;;3.67;2.00;;;17.30;99.90;;;;;;4967472;28;20177;-78
2023/08/19 01:37:53;;;;;;;3.72;2.00;;;17.30;99.90;;;;;;4968992;28;20054;-78
2023/08/19 01:40:21;;;;;;;9.23;1.90;;;17.30;99.90;;;;;;4951387;28;20023;-79
2023/08/19 01:42:47;;;;;;;4.67;2.07;;;17.30;99.90;;;;;;4951173;28;20035;-79
2023/08/19 01:45:14;;;;;;;3.40;2.15;;;17.40;99.90;;;;;;4951224;28;20034;-78
2023/08/19 01:47:42;;;;;;;4.32;2.67;;;17.30;99.90;;;;;;4951179;28;20029;-78
2023/08/19 01:50:08;;;;;;;3.83;2.50;;;17.30;99.90;;;;;;4951422;28;20061;-78
2023/08/19 01:52:34;;;;;;;5.53;2.03;;;17.30;99.90;;;;;;4951313;28;20066;-77
2023/08/19 01:55:00;;;;;;;10.40;2.42;;;17.20;99.90;;;;;;4954285;28;20488;-78
2023/08/19 01:57:27;;;;;;;1.48;1.38;;;17.20;99.90;;;;;;4971498;28;20027;-78
2023/08/19 01:59:54;;;;;;;8.43;3.10;;;17.10;99.90;;;;;;4971435;28;20078;-78
2023/08/19 02:02:20;;;;;;;3.22;2.08;;;17.10;99.90;;;;;;4970975;28;20022;-79
2023/08/19 02:04:46;;;;;;;3.25;1.90;;;17.10;99.90;;;;;;4972767;28;20106;-79
2023/08/19 02:07:13;;;;;;;3.25;1.83;;;17.00;99.90;;;;;;4971860;28;20571;-78
2023/08/19 02:09:40;;;;;;;3.17;1.95;;;17.00;99.90;;;;;;4991657;28;20026;-78
2023/08/19 02:12:06;;;;;;;2.33;2.08;;;16.90;99.90;;;;;;4991665;28;20022;-77
2023/08/19 02:14:31;;;;;;;2.45;2.25;;;16.80;99.90;;;;;;4992149;28;20049;-77
2023/08/19 02:16:57;;;;;;;2.60;1.73;;;16.90;99.90;;;;;;4991413;28;20092;-78
2023/08/19 02:19:23;;;;;;;3.05;2.03;;;16.80;99.90;;;;;;4991995;28;20037;-78
2023/08/19 02:21:48;;;;;;;2.65;1.65;;;16.70;99.90;;;;;;4992024;28;20053;-78
2023/08/19 02:24:14;;;;;;;5.05;2.20;;;16.80;99.90;;;;;;4991777;28;20065;-77
2023/08/19 02:26:39;;;;;;;3.50;1.70;;;16.70;99.90;;;;;;4991859;28;20038;-78
2023/08/19 02:29:05;;;;;;;6.95;2.50;;;16.70;99.90;;;;;;4974187;28;20026;-79
2023/08/19 02:31:31;;;;;;;5.13;2.50;;;16.70;99.90;;;;;;4973483;28;20078;-78
2023/08/19 02:33:56;;;;;;;2.50;1.90;;;16.70;99.90;;;;;;4991682;28;20117;-78
2023/08/19 02:36:22;;;;;;;4.57;2.47;;;16.60;99.90;;;;;;4974224;28;20034;-77
2023/08/19 02:38:48;;;;;;;3.80;2.25;;;16.60;99.90;;;;;;4991541;28;20029;-79
2023/08/19 02:41:14;;;;;;;4.28;2.03;;;16.50;99.90;;;;;;4991389;28;20054;-78
2023/08/19 02:43:39;;;;;;;2.60;1.98;;;16.50;99.90;;;;;;4991927;28;20080;-78
2023/08/19 02:46:05;;;;;;;1.80;1.65;;;16.60;99.90;;;;;;4991221;28;20392;-78
2023/08/19 02:48:31;;;;;;;5.40;2.10;;;16.50;99.90;;;;;;4991535;28;20168;-78
2023/08/19 02:50:56;;;;;;;3.35;2.05;;;16.50;99.90;;;;;;4991267;28;20119;-78
2023/08/19 02:53:22;;;;;;;5.18;2.40;;;16.60;99.90;;;;;;4991029;28;20034;-79
2023/08/19 02:55:52;;;;;;;3.85;2.08;;;16.50;99.90;;;;;;4973452;28;20022;-78
2023/08/19 02:58:17;;;;;;;5.80;2.13;;;16.40;99.90;;;;;;4973942;28;20085;-79
2023/08/19 03:00:46;;;;;;;6.22;2.55;;;16.30;99.90;;;;;;4973247;28;20124;-78
2023/08/19 03:03:12;;;;;;;3.80;1.92;;;16.30;99.90;;;;;;4973329;28;20042;-78
2023/08/19 03:05:38;;;;;;;2.45;2.00;;;16.30;99.90;;;;;;4990489;28;20027;-79
2023/08/19 03:08:09;;;;;;;2.60;2.05;;;16.30;99.90;;;;;;4984966;28;20074;-78
2023/08/19 03:10:36;;;;;;;3.47;1.95;;;16.30;99.90;;;;;;4953968;28;20023;-77
2023/08/19 03:13:03;;;;;;;4.32;2.30;;;16.40;99.90;;;;;;4953743;28;20034;-79
2023/08/19 03:15:29;;;;;;;2.22;2.13;;;16.40;99.90;;;;;;4971435;28;20027;-79
2023/08/19 03:17:54;;;;;;;4.90;2.88;;;16.40;99.90;;;;;;4971736;28;20015;-79
2023/08/19 03:20:20;;;;;;;2.95;2.30;;;16.40;99.90;;;;;;4971962;28;20027;-78
2023/08/19 03:22:45;;;;;;;2.88;2.25;;;15.90;99.90;;;;;;4953649;28;20049;-77
2023/08/19 03:25:11;;;;;;;1.90;1.60;;;16.30;99.90;;;;;;4953873;28;20202;-78
2023/08/19 03:27:37;;;;;;;2.17;1.98;;;16.30;99.90;;;;;;4971430;28;20034;-77
2023/08/19 03:30:04;;;;;;;2.72;2.33;;;16.10;99.90;;;;;;4971114;28;20031;-79
2023/08/19 03:32:30;;;;;;;2.97;2.15;;;16.20;99.90;;;;;;4952787;28;20067;-79
2023/08/19 03:34:56;;;;;;;2.78;2.53;;;16.20;99.90;;;;;;4953695;28;20046;-78
2023/08/19 03:37:22;;;;;;;5.90;2.80;;;16.00;99.90;;;;;;4971490;28;20019;-82
2023/08/19 03:39:48;;;;;;;2.25;1.98;;;16.00;99.90;;;;;;4969993;28;20506;-78
2023/08/19 03:42:13;;;;;;;6.35;3.05;;;16.00;99.90;;;;;;4953651;28;20089;-78
2023/08/19 03:44:39;;;;;;;5.38;2.72;;;16.00;99.90;;;;;;4970015;28;20031;-79
2023/08/19 03:47:04;;;;;;;5.35;2.67;;;16.10;99.90;;;;;;4970147;28;20432;-78
2023/08/19 03:49:30;;;;;;;2.58;2.25;;;16.10;99.90;;;;;;4973612;28;20479;-78
2023/08/19 03:51:56;;;;;;;2.33;1.85;;;16.10;99.90;;;;;;4970599;28;20019;-79
2023/08/19 03:54:21;;;;;;;3.00;2.00;;;16.00;99.90;;;;;;4971049;28;20043;-81
2023/08/19 03:56:47;;;;;;;3.85;2.33;;;16.00;99.90;;;;;;4975701;28;20023;-82
2023/08/19 03:59:13;;;;;;;7.63;2.40;;;15.90;99.90;;;;;;4972244;28;20074;-80
2023/08/19 04:01:39;;;;;;;5.32;2.88;;;15.90;99.90;;;;;;4976358;28;20055;-78
2023/08/19 04:04:07;;;;;;;3.45;2.45;;;15.70;99.90;;;;;;4954707;28;20030;-84
2023/08/19 04:06:34;;;;;;;6.68;2.40;;;15.60;99.90;;;;;;4971438;28;20404;-82
2023/08/19 04:09:01;;;;;;;3.42;2.67;;;15.60;99.90;;;;;;4996466;28;20019;-81
2023/08/19 04:11:27;;;;;;;2.58;2.28;;;15.60;99.90;;;;;;5001722;28;20022;-80
2023/08/19 04:13:55;;;;;;;4.68;2.65;;;15.50;99.90;;;;;;5000437;28;20026;-77
2023/08/19 04:16:22;;;;;;;7.10;3.30;;;15.50;99.90;;;;;;5010139;28;20029;-80
2023/08/19 04:18:51;;;;;;;3.92;2.05;;;15.50;99.90;;;;;;4986051;28;20022;-80
2023/08/19 04:21:16;;;;;;;2.13;1.95;;;15.50;99.90;;;;;;4977856;28;20034;-78
2023/08/19 04:23:42;;;;;;;4.35;2.72;;;15.50;99.90;;;;;;4990542;28;20031;-81
2023/08/19 04:26:12;;;;;;;4.93;2.58;;;15.50;99.90;;;;;;4978324;28;20030;-78
2023/08/19 04:28:37;;;;;;;3.38;2.67;;;15.60;99.90;;;;;;4992888;28;20026;-79
2023/08/19 04:31:08;;;;;;;6.35;2.60;;;15.50;99.90;;;;;;4990659;28;20037;-79
2023/08/19 04:33:35;;;;;;;2.22;2.08;;;15.40;99.90;;;;;;4989961;28;20455;-79
2023/08/19 04:36:04;;;;;;;3.28;2.28;;;15.40;99.90;;;;;;4972415;28;20485;-78
2023/08/19 04:38:31;;;;;;;;;;;15.50;99.90;;;;;;4989555;28;20400;-78
2023/08/19 04:40:59;;;;;;;4.95;2.53;;;15.50;99.90;;;;;;4989327;28;20523;-81
2023/08/19 04:43:27;;;;;;;5.50;3.13;;;15.60;99.90;;;;;;4989507;28;20037;-82
2023/08/19 04:45:54;;;;;;;2.47;2.10;;;15.50;99.90;;;;;;4989747;28;20276;-78
2023/08/19 04:48:20;;;;;;;5.82;2.20;;;15.50;99.90;;;;;;4990217;28;20171;-78
2023/08/19 04:50:46;;;;;;;2.67;2.03;;;15.50;99.90;;;;;;4989252;28;20022;-78
2023/08/19 04:53:12;;;;;;;2.72;2.00;;;15.60;99.90;;;;;;4972202;28;20502;-78
2023/08/19 04:55:37;;;;;;;5.28;2.75;;;15.60;99.90;;;;;;4989567;28;20049;-78
2023/08/19 04:58:03;;;;;;;5.35;2.33;;;15.70;99.90;;;;;;4989491;28;20345;-80
2023/08/19 05:00:29;;;;;;;5.32;2.30;;;15.80;99.90;;;;;;4971827;28;20403;-78
2023/08/19 05:02:54;;;;;;;13.88;2.55;;;15.80;99.90;;;;;;4971589;28;20030;-78
2023/08/19 05:05:20;;;;;;;2.15;1.95;;;16.00;99.90;;;;;;4971872;28;20051;-78
2023/08/19 05:07:46;;;;;;;6.05;3.42;;;16.10;99.90;;;;;;4985477;28;20108;-81
2023/08/19 05:10:11;;;;;;;5.07;2.17;;;16.10;99.90;;;;;;4970344;28;20023;-78
2023/08/19 05:12:37;;;;;;;6.03;2.30;;;16.30;99.90;;;;;;4969114;28;20031;-80
2023/08/19 05:15:03;;;;;;;3.88;2.42;;;16.30;99.90;;;;;;4969646;28;20035;-78
2023/08/19 05:17:29;;;;;;;4.28;2.33;;;16.50;99.90;;;;;;4951979;28;20019;-79
2023/08/19 05:19:55;;;;;;;3.13;2.67;;;16.50;99.90;;;;;;4969326;28;20057;-78
2023/08/19 05:22:22;;;;;;;2.80;2.58;;;16.50;99.90;;;;;;4969309;28;20122;-79
2023/08/19 05:24:49;;;;;;;2.55;2.17;;;16.60;99.90;;;;;;4952189;28;20352;-78
2023/08/19 05:27:14;;;;;;;5.35;2.70;;;16.60;99.90;;;;;;4968426;28;20031;-79
2023/08/19 05:29:40;;;;;;;22.80;3.60;;;16.70;99.90;;;;;;4967824;28;20034;-78
2023/08/19 05:32:06;;;;;;;4.38;2.20;;;16.80;99.90;;;;;;4969641;28;20050;-79
2023/08/19 05:34:31;;;;;;;4.00;1.88;;;16.90;99.90;;;;;;4949820;28;20066;-79
2023/08/19 05:36:57;;;;;;;8.10;2.90;;;17.00;99.90;;;;;;4966301;28;20015;-77
2023/08/19 05:39:22;;;;;;;3.40;2.40;;;17.20;99.90;;;;;;4966886;28;20050;-79
2023/08/19 05:41:48;;;;;;;2.10;2.00;;;17.30;99.90;;;;;;4967059;28;20034;-78
2023/08/19 05:44:14;;;;;;;5.40;2.28;;;17.60;99.90;;;;;;4967260;28;20019;-79
2023/08/19 05:46:39;;;;;;;3.22;2.10;;;17.50;99.90;;;;;;4966399;28;20035;-79
2023/08/19 05:49:05;;;;;;;2.08;1.88;;;17.60;99.90;;;;;;4967754;28;20034;-78
2023/08/19 05:51:31;;;;;;;3.30;1.75;;;17.70;99.90;;;;;;4966984;28;20649;-79
2023/08/19 05:54:00;;;;;;;7.32;2.78;;;17.80;99.90;;;;;;4968410;28;20034;-79
2023/08/19 05:56:26;;;;;;;1.90;1.77;;;18.00;99.90;;;;;;4968758;28;20384;-77
2023/08/19 05:58:52;;;;;;;2.00;1.90;;;18.10;99.90;;;;;;4968552;28;20484;-81
2023/08/19 06:01:17;;;;;;;5.50;2.40;;;18.20;99.90;;;;;;4968421;28;20039;-79
2023/08/19 06:03:43;;;;;;;3.50;1.75;;;18.50;99.90;;;;;;4967260;28;20027;-79
2023/08/19 06:06:09;;;;;;;1.83;1.67;;;18.60;99.90;;;;;;4968639;28;20031;-79
2023/08/19 06:08:35;;;;;;;6.65;2.40;;;18.70;99.90;;;;;;4950851;28;20030;-79
2023/08/19 06:11:04;;;;;;;2.13;1.70;;;18.90;99.90;;;;;;4969118;28;20110;-79
2023/08/19 06:13:30;;;;;;;;;;;19.10;99.90;;;;;;4970347;28;20027;-77
2023/08/19 06:15:56;;;;;;;2.22;2.03;;;19.30;99.90;;;;;;4968387;28;20334;-78
2023/08/19 06:18:22;;;;;;;2.33;2.13;;;19.50;99.90;;;;;;4968957;28;20062;-79
2023/08/19 06:20:50;;;;;;;2.45;2.10;;;19.70;99.90;;;;;;4970047;28;20023;-78
2023/08/19 06:23:17;;;;;;;4.95;2.17;;;20.10;99.90;;;;;;4952791;28;20035;-79
2023/08/19 06:25:44;;;;;;;2.45;2.10;;;20.20;99.90;;;;;;4968470;28;20077;-79
2023/08/19 06:28:09;;;;;;;6.88;2.50;;;20.50;99.90;;;;;;4969797;28;20042;-78
2023/08/19 06:30:35;;;;;;;3.08;2.63;;;20.90;99.90;;;;;;4969768;28;20030;-79
2023/08/19 06:33:01;;;;;;;2.95;1.85;;;21.10;99.90;;;;;;4969417;28;20060;-79
2023/08/19 06:35:27;;;;;;;3.33;2.10;;;21.40;99.90;;;;;;4968494;28;20455;-79
2023/08/19 06:37:55;;;;;;;4.93;1.63;;;21.70;99.90;;;;;;4952051;28;20235;-78
2023/08/19 06:40:23;;;;;;;3.95;2.30;;;22.10;99.90;;;;;;4952610;28;20188;-78
2023/08/19 06:42:50;;;;;;;4.82;2.08;;;22.40;99.90;;;;;;4971981;28;20098;-79
2023/08/19 06:45:16;;;;;;;3.50;1.70;;;22.50;99.90;;;;;;4955791;28;20443;-79
2023/08/19 06:47:43;;;;;;;2.13;1.80;;;22.60;99.90;;;;;;4955254;28;20388;-80
2023/08/19 06:50:09;;;;;;;2.83;2.63;;;22.90;99.90;;;;;;4973636;28;20015;-79
2023/08/19 06:52:36;;;;;;;2.78;1.90;;;22.90;99.90;;;;;;4973375;28;20499;-79
2023/08/19 06:55:03;;;;;;;4.43;2.08;;;23.00;99.90;;;;;;4973171;28;20503;-80
2023/08/19 06:57:38;;;;;;;3.20;1.90;;;23.20;99.90;;;;;;4971997;28;20038;-79
2023/08/19 07:00:11;;;;;;;2.85;1.95;;;23.50;99.90;;;;;;4955521;28;20141;-79
2023/08/19 07:02:38;;;;;;;7.25;2.63;;;23.80;99.90;;;;;;4955433;28;20029;-80
2023/08/19 07:05:13;;;;;;;2.28;2.08;;;24.40;99.90;;;;;;4973295;28;20046;-80
2023/08/19 07:07:46;;;;;;;3.53;1.95;;;24.80;99.90;;;;;;4973326;28;20431;-80
2023/08/19 07:10:14;;;;;;;9.52;2.67;;;24.90;99.90;;;;;;4963351;28;20124;-79
2023/08/19 07:12:40;;;;;;;6.95;2.05;;;25.00;99.90;;;;;;4991932;28;20022;-78
2023/08/19 07:15:11;;;;;;;4.70;2.58;;;24.90;99.90;;;;;;4992227;28;20113;-79
2023/08/19 07:17:46;;;;;;;5.60;2.45;;;24.80;99.90;;;;;;4991622;28;20109;-80
2023/08/19 07:20:22;;;;;;;3.22;2.67;;;24.80;99.90;;;;;;4991802;28;20123;-80
2023/08/19 07:22:51;;;;;;;4.45;2.30;;;24.80;99.90;;;;;;4974427;28;20394;-80
2023/08/19 07:25:17;;;;;;;2.40;1.70;;;24.80;99.90;;;;;;4992516;28;20026;-79
2023/08/19 07:27:43;;;;;;;3.92;2.65;;;24.90;99.90;;;;;;4974352;28;20034;-80
2023/08/19 07:30:09;;;;;;;2.22;2.03;;;24.90;99.70;;;;;;4974518;28;20108;-80
2023/08/19 07:32:36;;;;;;;2.78;1.90;;;25.10;99.50;;;;;;4974099;28;20037;-80
2023/08/19 07:35:03;;;;;;;3.97;2.50;;;25.20;99.30;;;;;;4991520;28;20038;-80
2023/08/19 07:37:29;;;;;;;6.72;2.72;;;25.20;98.90;;;;;;4974054;28;20026;-79
2023/08/19 07:39:56;;;;;;;2.83;2.30;;;25.40;98.40;;;;;;4974476;28;20117;-81
2023/08/19 07:42:22;;;;;;;2.92;2.70;;;25.40;98.10;;;;;;4974021;28;20497;-79
2023/08/19 07:44:47;;;;;;;2.80;2.00;;;25.60;97.90;;;;;;4975596;28;20101;-80
2023/08/19 07:47:13;;;;;;;2.22;2.03;;;25.80;97.50;;;;;;4973944;28;20134;-80
2023/08/19 07:49:39;;;;;;;4.22;2.67;;;26.00;96.10;;;;;;4974560;28;20035;-80
2023/08/19 07:52:05;;;;;;;6.90;2.45;;;25.90;95.70;;;;;;4980078;28;20026;-76
2023/08/19 07:54:31;;;;;;;6.97;2.45;;;26.10;96.70;;;;;;4992310;28;20073;-71
2023/08/19 07:56:58;;;;;;;6.07;3.67;;;26.30;96.20;;;;;;4991134;28;20041;-73
2023/08/19 07:59:25;;;;;;;5.13;1.83;;;26.70;95.50;;;;;;4974454;28;20042;-72
2023/08/19 08:01:51;;;;;;;5.80;2.85;;;27.10;93.80;;;;;;4990914;28;20034;-74
2023/08/19 08:04:18;;;;;;;4.15;2.08;;;27.40;93.40;;;;;;4991414;28;20383;-70
2023/08/19 08:06:45;;;;;;;4.55;2.55;;;27.80;92.00;;;;;;4990935;28;20022;-70
2023/08/19 08:09:11;;;;;;;4.65;2.63;;;27.90;92.40;;;;;;4990885;28;20395;-74
2023/08/19 08:11:36;;;;;;;6.05;2.78;;;28.10;90.60;;;;;;4991002;28;20034;-73
2023/08/19 08:14:02;;;;;;;3.80;2.70;;;28.30;89.50;;;;;;4973152;28;20035;-73
2023/08/19 08:16:28;;;;;;;3.47;2.42;;;28.70;87.30;;;;;;4990516;28;20026;-70
2023/08/19 08:18:53;;;;;;;6.90;2.10;;;29.10;85.20;;;;;;4990881;28;20033;-69
2023/08/19 08:21:20;;;;;;;4.32;2.05;;;30.00;82.50;;;;;;4990867;28;20030;-68
2023/08/19 08:23:46;;;;;;;3.92;2.17;;;30.50;79.40;;;;;;4986629;28;20026;-71
2023/08/19 08:26:13;;;;;;;6.13;2.13;;;31.50;77.40;;;;;;4990432;28;20014;-69
2023/08/19 08:28:38;;;;;;;7.45;2.47;;;32.10;73.20;;;;;;4988284;28;20426;-69
2023/08/19 08:31:04;;;;;;;3.38;2.53;;;32.80;69.40;;;;;;4989774;28;20023;-67
2023/08/19 08:33:30;;;;;;;9.65;3.22;;;32.70;69.50;;;;;;4990326;28;20029;-72
2023/08/19 08:36:00;;;;;;;4.65;2.53;;;33.10;68.80;;;;;;4999720;28;20042;-71
2023/08/19 08:38:26;;;;;;;3.38;2.50;;;33.10;68.60;;;;;;4996492;28;20020;-72
2023/08/19 08:40:58;;;;;;;2.78;2.47;;;33.00;68.20;;;;;;4996808;28;20093;-75
2023/08/19 08:43:24;;;;;;;3.72;2.22;;;32.10;69.90;;;;;;5000631;28;20133;-72
2023/08/19 08:45:51;;;;;;;7.07;2.78;;;32.40;69.40;;;;;;5000042;28;20025;-72
2023/08/19 08:48:18;;;;;;;4.35;2.22;;;32.90;69.20;;;;;;4984835;28;20218;-72
2023/08/19 08:50:44;;;;;;;6.38;2.40;;;33.30;67.50;;;;;;4981140;28;20015;-74
2023/08/19 08:53:12;;;;;;;4.97;2.03;;;33.20;68.00;;;;;;4981881;28;20315;-74
2023/08/19 08:55:38;;;;;;;7.50;1.88;;;33.60;66.40;;;;;;4980402;28;20319;-75
2023/08/19 08:58:04;;;;;;;2.42;1.70;;;34.40;64.90;;;;;;4981562;28;20017;-73
2023/08/19 09:00:31;;;;;;;3.78;2.10;;;34.90;64.30;;;;;;4984506;28;20112;-75
2023/08/19 09:02:58;;;;;;;5.15;1.90;;;35.30;61.60;;;;;;4992718;28;20022;-75
2023/08/19 09:05:26;;;;;;;3.08;1.95;;;35.60;60.00;;;;;;4997997;28;20034;-74
2023/08/19 09:07:54;;;;;;;16.08;3.38;;;35.50;58.80;;;;;;4995293;28;20226;-75
2023/08/19 09:10:23;;;;;;;16.15;3.50;;;35.60;57.50;;;;;;4979740;28;20042;-75
2023/08/19 09:12:58;;;;;;;8.18;3.45;;;35.70;57.70;;;;;;4980619;28;20023;-75
2023/08/19 09:15:27;;;;;;;6.63;2.38;;;35.40;58.10;;;;;;4977720;28;20035;-75
2023/08/19 09:17:53;;;;;;;2.05;1.90;;;35.00;58.20;;;;;;4980256;28;20151;-74
2023/08/19 09:20:20;;;;;;;3.03;1.63;;;34.80;58.70;;;;;;4980480;28;20061;-74
2023/08/19 09:22:46;;;;;;;2.42;1.70;;;34.80;59.80;;;;;;4980323;28;20037;-74
2023/08/19 09:25:15;;;;;;;5.20;1.85;;;34.90;59.50;;;;;;4979999;28;20051;-73
2023/08/19 09:27:41;;;;;;;4.72;2.15;;;35.00;59.60;;;;;;4978574;28;20027;-74
2023/08/19 09:30:07;;;;;;;4.28;1.60;;;35.00;59.70;;;;;;4979148;28;20026;-75
2023/08/19 09:32:36;;;;;;;5.90;2.08;;;34.50;59.10;;;;;;4980436;28;20383;-75
2023/08/19 09:35:02;;;;;;;3.00;1.88;;;33.40;61.00;;;;;;4980144;28;20026;-75
2023/08/19 09:37:29;;;;;;;4.18;1.83;;;33.50;62.30;;;;;;4979738;28;20102;-75
2023/08/19 09:39:55;;;;;;;2.53;2.05;;;33.60;61.30;;;;;;4979720;28;20196;-75
2023/08/19 09:42:21;;;;;;;2.10;2.00;;;33.40;63.20;;;;;;4980043;28;20332;-75
2023/08/19 09:44:46;;;;;;;5.43;2.28;;;33.40;61.00;;;;;;4978481;28;20145;-75
2023/08/19 09:47:12;;;;;;;3.83;1.90;;;33.40;60.80;;;;;;4979861;28;20057;-75
2023/08/19 09:49:38;;;;;;;2.28;2.08;;;33.60;60.70;;;;;;4980013;28;20354;-75
2023/08/19 09:52:04;;;;;;;3.83;2.13;;;33.90;60.30;;;;;;4979535;28;20077;-75
2023/08/19 09:54:30;;;;;;;3.72;2.30;;;33.80;59.50;;;;;;4978912;28;20051;-75
2023/08/19 09:56:57;;;;;;;2.67;1.73;;;33.90;59.40;;;;;;4980093;28;20446;-75
2023/08/19 09:59:26;;;;;;;4.40;2.47;;;33.90;60.30;;;;;;4979751;28;20047;-74
2023/08/19 10:01:56;;;;;;;6.30;1.90;;;33.90;59.20;;;;;;4962342;28;20066;-75
2023/08/19 10:04:22;;;;;;;4.15;1.90;;;34.00;59.30;;;;;;4979686;28;20069;-74
2023/08/19 10:06:50;;;;;;;4.43;1.80;;;34.20;56.60;;;;;;4963006;28;20026;-75
2023/08/19 10:09:19;;;;;;;4.00;2.47;;;34.10;52.50;;;;;;4962217;28;20031;-74
2023/08/19 10:11:46;;;;;;;4.97;1.80;;;33.90;53.80;;;;;;4976615;28;20062;-77
2023/08/19 10:14:13;;;;;;;2.55;1.67;;;34.00;53.60;;;;;;4961209;28;20030;-77
2023/08/19 10:16:44;;;;;;;4.63;2.10;;;34.40;53.40;;;;;;4970425;28;20026;-76
2023/08/19 10:19:13;;;;;;;2.60;1.77;;;34.50;53.60;;;;;;4984766;28;20026;-77
2023/08/19 10:21:40;;;;;;;2.00;1.73;;;34.50;53.50;;;;;;4984226;28;20027;-77
2023/08/19 10:24:07;;;;;;;3.33;1.83;;;34.40;55.50;;;;;;4984024;28;20380;-74
2023/08/19 10:26:33;;;;;;;1.55;1.35;;;35.10;52.50;;;;;;5001836;28;20022;-74
2023/08/19 10:29:04;;;;;;;2.67;2.10;;;35.00;52.20;;;;;;4983593;28;20029;-74
2023/08/19 10:31:30;;;;;;;3.70;1.50;;;34.90;53.60;;;;;;5001522;28;20022;-75
2023/08/19 10:33:56;;;;;;;2.50;2.05;;;34.80;53.70;;;;;;5001874;28;20030;-75
2023/08/19 10:36:28;;;;;;;1.80;1.70;;;34.20;52.40;;;;;;4985184;28;20042;-75
2023/08/19 10:39:03;;;;;;;3.38;2.15;;;34.10;53.40;;;;;;4985190;28;20026;-75
2023/08/19 10:41:36;;;;;;;2.03;1.90;;;33.90;53.20;;;;;;5001433;28;20097;-75
2023/08/19 10:44:12;;;;;;;2.75;2.55;;;33.90;53.60;;;;;;4994432;28;20096;-75
2023/08/19 10:46:47;;;;;;;7.07;1.73;;;34.20;54.70;;;;;;4993411;28;20154;-75
2023/08/19 10:49:15;;;;;;;9.57;2.45;;;34.30;52.60;;;;;;4993038;28;20046;-75
2023/08/19 10:51:48;;;;;;;1.90;1.50;;;34.50;52.50;;;;;;4990952;28;20027;-76
2023/08/19 10:54:23;;;;;;;5.85;2.00;;;34.80;54.70;;;;;;4975514;28;20350;-76
2023/08/19 10:57:07;;;;;;;6.18;1.88;;;34.90;52.30;;;;;;4992540;28;20018;-76
2023/08/19 10:59:34;;;;;;;4.00;1.88;;;35.20;52.20;;;;;;4975836;28;20081;-75
2023/08/19 11:02:00;;;;;;;3.58;1.63;;;35.10;52.70;;;;;;4993060;28;20158;-77
2023/08/19 11:04:26;;;;;;;2.35;1.83;;;34.80;53.40;;;;;;4995100;28;20069;-78
2023/08/19 11:06:53;;;;;;;2.65;2.00;;;34.50;53.90;;;;;;4992088;28;20019;-75
2023/08/19 11:09:19;;;;;;;1.63;1.52;;;34.40;52.70;;;;;;4969364;28;20326;-77
2023/08/19 11:11:45;;;;;;;2.25;2.03;;;34.30;52.20;;;;;;4988402;28;20033;-74
2023/08/19 11:14:17;;;;;;;3.38;2.25;;;34.30;52.20;;;;;;4971591;28;20210;-75
2023/08/19 11:16:56;;;;;;;2.28;1.95;;;34.70;53.20;;;;;;4967916;28;20045;-76
2023/08/19 11:19:22;;;;;;;;;;;35.30;52.60;;;;;;4989419;28;20357;-77
2023/08/19 11:21:48;;;;;;;4.70;1.85;;;35.90;53.40;;;;;;4983642;28;19906;-76
2023/08/19 11:24:14;;;;;;;6.07;3.08;;;35.70;51.10;;;;;;4981024;28;20033;-76
2023/08/19 11:26:42;;;;;;;5.82;2.30;;;35.50;53.40;;;;;;4962357;28;20023;-78
2023/08/19 11:29:08;;;;;;;2.28;2.10;;;35.40;52.50;;;;;;4985420;28;20019;-76
2023/08/19 11:31:38;;;;;;;2.10;1.90;;;36.00;52.60;;;;;;4983941;28;20106;-77
2023/08/19 11:34:11;;;;;;;6.35;2.35;;;36.20;52.80;;;;;;4974831;28;20038;-78
2023/08/19 11:36:38;;;;;;;3.20;2.00;;;36.60;51.10;;;;;;4988245;28;20023;-77
2023/08/19 11:39:05;;;;;;;3.47;2.00;;;37.30;50.60;;;;;;4988793;28;20074;-77
2023/08/19 11:41:31;;;;;;;2.22;1.70;;;37.50;49.90;;;;;;4989802;28;20019;-78
2023/08/19 11:43:58;;;;;;;4.32;1.90;;;38.00;49.60;;;;;;4974855;28;20019;-77
2023/08/19 11:46:36;;;;;;;3.47;2.00;;;38.10;49.80;;;;;;4975906;28;20029;-78
2023/08/19 11:49:09;;;;;;;2.20;1.90;;;37.70;49.40;;;;;;4985742;28;20023;-76
2023/08/19 11:51:39;;;;;;;2.53;1.98;;;38.30;50.60;;;;;;4986176;28;20120;-75
2023/08/19 11:54:07;;;;;;;2.50;1.88;;;37.80;49.40;;;;;;4987650;28;20031;-78
2023/08/19 11:56:48;;;;;;;6.50;1.92;;;36.80;51.10;;;;;;4989671;28;20093;-80
2023/08/19 11:59:14;;;;;;;4.15;1.40;;;36.70;50.40;;;;;;4991793;28;20030;-79
2023/08/19 12:01:40;;;;;;;2.10;1.75;;;37.40;50.10;;;;;;4986350;28;20033;-69
2023/08/19 12:04:11;;;;;;;4.88;1.73;;;38.50;50.90;;;;;;4989261;28;20030;-67
2023/08/19 12:06:38;;;;;;;2.13;1.60;;;39.50;49.60;;;;;;4990338;28;20038;-69
2023/08/19 12:09:04;;;;;;;2.03;1.42;;;38.70;49.50;;;;;;4990793;28;20014;-72
2023/08/19 12:11:30;;;;;;;4.97;1.95;;;37.80;48.80;;;;;;4991387;28;20029;-71
2023/08/19 12:13:56;;;;;;;4.03;2.47;;;37.70;50.20;;;;;;4989352;28;20165;-76
2023/08/19 12:16:22;;;;;;;3.95;1.92;;;37.70;49.90;;;;;;4989857;28;20204;-75
2023/08/19 12:18:48;;;;;;;6.28;1.85;;;37.60;49.80;;;;;;4991003;28;20062;-76
2023/08/19 12:21:14;;;;;;;1.92;1.83;;;37.80;49.80;;;;;;4989294;28;20023;-75
2023/08/19 12:23:39;;;;;;;5.18;2.00;;;38.10;49.90;;;;;;4990810;28;20017;-74
2023/08/19 12:26:05;;;;;;;3.95;2.05;;;38.60;48.90;;;;;;4976385;28;20045;-74
2023/08/19 12:28:31;;;;;;;2.90;2.13;;;39.30;48.80;;;;;;4998675;28;20025;-74
2023/08/19 12:30:57;;;;;;;3.55;2.03;;;39.20;48.60;;;;;;4999869;28;20035;-74
2023/08/19 12:33:23;;;;;;;4.47;1.75;;;38.60;50.90;;;;;;4982103;28;20046;-74
2023/08/19 12:35:50;;;;;;;6.55;1.52;;;38.60;49.10;;;;;;4997802;28;20218;-75
2023/08/19 12:38:18;;;;;;;7.72;2.42;;;38.80;49.20;;;;;;4998976;28;20149;-75
2023/08/19 12:40:45;;;;;;;;;;;37.70;49.30;;;;;;4991161;28;20065;-76
2023/08/19 12:43:12;;;;;;;3.83;1.95;;;37.10;50.20;;;;;;4963974;28;19901;-75
2023/08/19 12:45:38;;;;;;;2.55;2.08;;;36.90;52.20;;;;;;4963241;28;20094;-76
2023/08/19 12:48:04;;;;;;;10.85;2.35;;;37.10;51.60;;;;;;4988125;28;20014;-76